page 1195 of 1011698 registered users

eBook PostsUsers

  1. 0locko1 registered @ 2010-02-21 15:30:01, last login @ 2010-02-21 15:31:20
  2. 0Taku registered @ 2010-02-21 15:31:36, last login @ 2010-02-21 15:31:36
  3. 0wangsir registered @ 2010-02-21 15:45:08, last login @ 2010-02-21 15:45:08
  4. 0story1220 registered @ 2010-02-21 15:45:46, last login @ 2010-02-21 15:51:19
  5. 0ohgrateboy registered @ 2010-02-21 15:58:47, last login @ 2010-02-21 15:58:47
  6. 0trebraSaf registered @ 2010-02-21 16:01:16, last login @ 2010-02-21 16:01:16
  7. 0Yonge registered @ 2010-02-21 16:03:40, last login @ 2010-02-21 16:03:40
  8. 0cscs34 registered @ 2010-02-21 16:11:06, last login @ 2010-02-21 16:11:36
  9. 0Hauddenue registered @ 2010-02-21 16:15:43, last login @ 2010-02-21 16:15:43
  10. 0wisdomboy168 registered @ 2010-02-21 16:27:13, last login @ 2010-02-21 16:28:44
  11. 0mehrantp registered @ 2010-02-21 16:27:24, last login @ 2010-02-21 16:27:24
  12. 0prinam registered @ 2010-02-21 16:34:33, last login @ 2010-09-19 15:23:24
  13. 0mousy registered @ 2010-02-21 16:41:12, last login @ 2010-02-21 16:41:12
  14. 0FalkGalleyvet registered @ 2010-02-21 17:20:30, last login @ 2010-02-21 17:20:30
  15. 0TomasJStivenson registered @ 2010-02-21 17:22:35, last login @ 2010-02-21 17:22:35
  16. 0Prientinina registered @ 2010-02-21 17:23:51, last login @ 2010-03-05 20:09:27
  17. 0zaeemahmedabbasi registered @ 2010-02-21 17:36:16, last login @ 2010-02-21 17:36:16
  18. 0wujiehi registered @ 2010-02-21 17:40:26, last login @ 2010-02-21 17:40:26
  19. 0ZorAce registered @ 2010-02-21 17:41:06, last login @ 2010-02-21 17:41:06
  20. 0atrend registered @ 2010-02-21 17:47:16, last login @ 2010-02-21 17:47:16
  21. 0sharath388 registered @ 2010-02-21 17:51:19, last login @ 2010-02-21 17:51:19
  22. 0anitadembek registered @ 2010-02-21 17:57:09, last login @ 2010-02-21 17:57:09
  23. 0terroristovolos registered @ 2010-02-21 18:12:20, last login @ 2010-02-21 18:12:20
  24. 0dewynter registered @ 2010-02-21 18:27:39, last login @ 2010-02-21 18:28:40
  25. 0makssemenovg registered @ 2010-02-21 18:28:39, last login @ 2010-02-21 18:28:39
  26. 0gastiwoyayz registered @ 2010-02-21 18:39:53, last login @ 2010-02-21 18:39:53
  27. 0PewnorneBew registered @ 2010-02-21 18:42:11, last login @ 2010-02-21 18:42:11
  28. 0RichardLE registered @ 2010-02-21 18:51:44, last login @ 2010-02-21 18:51:44
  29. 0ImpeteFen registered @ 2010-02-21 19:12:22, last login @ 2010-02-21 19:12:22
  30. 0hirouhitou registered @ 2010-02-21 19:18:47, last login @ 2011-01-12 23:22:53
  31. 0ramuh13 registered @ 2010-02-21 19:33:09, last login @ 2010-02-21 19:33:09
  32. 0psycha registered @ 2010-02-21 19:39:53, last login @ 2010-02-21 19:39:53
  33. 0aspispvania registered @ 2010-02-21 19:43:33, last login @ 2010-02-21 19:43:33
  34. 0aquaribba registered @ 2010-02-21 19:47:36, last login @ 2010-02-21 19:47:36
  35. 0powerintake registered @ 2010-02-21 19:57:11, last login @ 2010-02-21 19:57:11
  36. 0creepycat registered @ 2010-02-21 20:01:56, last login @ 2010-02-21 20:01:56
  37. 0changepoint registered @ 2010-02-21 20:06:41, last login @ 2010-02-21 20:06:41
  38. 0ZPJohn registered @ 2010-02-21 20:23:49, last login @ 2010-02-21 20:23:49
  39. 0mojy registered @ 2010-02-21 20:40:31, last login @ 2010-02-21 20:40:31
  40. 0faysuen registered @ 2010-02-21 20:41:26, last login @ 2010-02-21 20:41:26
  41. 0vahid63 registered @ 2010-02-21 20:51:51, last login @ 2010-02-21 20:51:51
  42. 0Suineuplite registered @ 2010-02-21 20:57:55, last login @ 2010-02-21 20:57:55
  43. 0inder_singh09 registered @ 2010-02-21 20:59:48, last login @ 2010-02-21 20:59:48
  44. 0Slavoljub registered @ 2010-02-21 21:00:50, last login @ 2010-02-22 17:37:42
  45. 0emalmisee registered @ 2010-02-21 21:15:16, last login @ 2010-03-12 20:12:48
  46. 0fakirmohansahu registered @ 2010-02-21 21:25:35, last login @ 2010-02-21 21:25:35
  47. 0ferdinand registered @ 2010-02-21 21:42:26, last login @ 2010-02-21 21:42:26
  48. 0hisammii registered @ 2010-02-21 21:47:49, last login @ 2010-02-21 21:47:49
  49. 0mike2010 registered @ 2010-02-21 22:08:44, last login @ 2010-02-21 22:08:44
  50. 0brurseAnceree registered @ 2010-02-21 22:44:59, last login @ 2010-02-21 22:44:59
  51. 0kewensi registered @ 2010-02-21 23:22:26, last login @ 2010-02-21 23:30:03
  52. 0Biflescacle registered @ 2010-02-21 23:22:50, last login @ 2010-02-21 23:22:50
  53. 0pitter27 registered @ 2010-02-21 23:24:51, last login @ 2010-02-21 23:26:16
  54. 0zhouzhou registered @ 2010-02-21 23:33:51, last login @ 2010-02-21 23:37:18
  55. 0rollyny registered @ 2010-02-22 00:01:14, last login @ 2010-02-22 00:01:14
  56. 0Nuseusest registered @ 2010-02-22 00:01:40, last login @ 2010-02-22 00:01:40
  57. 0termDerihit registered @ 2010-02-22 00:03:48, last login @ 2010-02-22 00:03:48
  58. 0tonly registered @ 2010-02-22 00:14:46, last login @ 2010-02-22 00:14:46
  59. 0tonly9394 registered @ 2010-02-22 00:19:58, last login @ 2010-02-22 00:19:58
  60. 0botstart registered @ 2010-02-22 00:25:06, last login @ 2010-02-22 00:25:06
  61. 0Triax registered @ 2010-02-22 00:25:18, last login @ 2010-02-28 15:00:31
  62. 0enso registered @ 2010-02-22 00:29:38, last login @ 2010-02-23 01:34:12
  63. 0AsseryWep registered @ 2010-02-22 00:46:15, last login @ 2010-02-22 00:46:15
  64. 0xiaojiasuperman registered @ 2010-02-22 01:01:13, last login @ 2010-02-22 01:01:13
  65. 0wrinuouffig registered @ 2010-02-22 01:12:59, last login @ 2010-02-22 01:12:59
  66. 0Undilespini registered @ 2010-02-22 01:13:02, last login @ 2010-02-22 01:13:02
  67. 0breadboats registered @ 2010-02-22 01:13:04, last login @ 2010-02-22 01:13:04
  68. 0Updaksraphrag registered @ 2010-02-22 01:16:20, last login @ 2010-02-22 01:16:20
  69. 0wowo00000518 registered @ 2010-02-22 01:20:27, last login @ 2010-02-22 01:20:27
  70. 0mjreddy registered @ 2010-02-22 01:23:21, last login @ 2010-02-22 01:23:21
  71. 0temphkp registered @ 2010-02-22 01:33:34, last login @ 2010-02-22 01:40:05
  72. 0creason registered @ 2010-02-22 01:39:08, last login @ 2010-02-22 01:39:08
  73. 0xiaoyan registered @ 2010-02-22 01:49:36, last login @ 2010-02-22 01:49:36
  74. 0zhu408 registered @ 2010-02-22 01:50:19, last login @ 2010-02-22 01:50:19
  75. 0Mikefalisk registered @ 2010-02-22 02:07:56, last login @ 2010-02-22 02:07:56
  76. 0zhangw950 registered @ 2010-02-22 02:13:25, last login @ 2010-02-22 02:13:25
  77. 0echo93 registered @ 2010-02-22 02:14:33, last login @ 2010-02-22 03:23:53
  78. 0conan0829 registered @ 2010-02-22 02:31:26, last login @ 2010-02-22 02:31:26
  79. 0lanapang registered @ 2010-02-22 02:34:01, last login @ 2010-02-22 02:34:01
  80. 0rhondazunek registered @ 2010-02-22 02:37:28, last login @ 2010-02-22 02:37:28
  81. 0SodsUnsonia registered @ 2010-02-22 02:53:35, last login @ 2010-02-22 02:53:35
  82. 0chemhehe registered @ 2010-02-22 02:53:38, last login @ 2010-02-22 02:53:38
  83. 0happygirlren registered @ 2010-02-22 03:03:27, last login @ 2010-02-22 03:03:27
  84. 0vickywang1989 registered @ 2010-02-22 03:07:48, last login @ 2010-02-22 03:08:47
  85. 0lingzhewei registered @ 2010-02-22 03:08:23, last login @ 2010-02-22 03:08:23
  86. 0qjch_cn registered @ 2010-02-22 03:12:35, last login @ 2010-02-22 03:12:35
  87. 0acuario02 registered @ 2010-02-22 03:17:37, last login @ 2010-03-24 06:25:53
  88. 0chnzhn registered @ 2010-02-22 03:20:58, last login @ 2010-02-22 03:20:58
  89. 0yjl8631 registered @ 2010-02-22 03:45:32, last login @ 2010-02-22 03:45:46
  90. 0duvaltina registered @ 2010-02-22 03:54:08, last login @ 2010-02-22 03:54:08
  91. 0zhulc registered @ 2010-02-22 04:05:08, last login @ 2010-02-22 04:05:21
  92. 0quesonitro registered @ 2010-02-22 04:07:25, last login @ 2010-02-22 04:07:25
  93. 0asydaypom registered @ 2010-02-22 04:13:00, last login @ 2010-02-22 04:13:00
  94. 0tenglihui registered @ 2010-02-22 04:25:17, last login @ 2010-02-22 04:25:17
  95. 0Yankovich registered @ 2010-02-22 04:33:10, last login @ 2010-02-22 04:33:10
  96. 0wyier registered @ 2010-02-22 04:33:34, last login @ 2010-02-22 04:33:34
  97. 0WUNorbert registered @ 2010-02-22 04:35:56, last login @ 2010-02-22 04:35:56
  98. 0Diobevortioro registered @ 2010-02-22 04:37:27, last login @ 2010-02-22 04:37:27
  99. 0billjeffjoy registered @ 2010-02-22 04:40:02, last login @ 2010-02-22 04:40:02
  100. 0vvjackie registered @ 2010-02-22 04:40:22, last login @ 2010-02-22 04:40:22
  101. 0rachana registered @ 2010-02-22 04:40:23, last login @ 2010-02-22 04:40:23

More...

[1205] [1204] [1203] [1202] [1201] [1200] [1199] [1198] [1197] [1196] [1195] [1194] [1193] [1192] [1191] [1190] [1189] [1188] [1187] [1186] ...[1]
Back to Top